createdAt,value
2022-11-05T00:01:47.299Z,22.22
2022-11-05T00:04:33.596Z,23.00
2022-11-05T00:07:24.710Z,22.68
2022-11-05T00:10:01.815Z,23.12
2022-11-05T00:12:47.595Z,23.46
2022-11-05T00:15:33.381Z,23.35
2022-11-05T00:18:00.680Z,23.14
2022-11-05T00:23:31.034Z,22.79
2022-11-05T00:25:59.310Z,22.81
2022-11-05T00:28:28.389Z,22.98
2022-11-05T00:31:00.831Z,22.18
2022-11-05T00:33:28.396Z,22.59
2022-11-05T00:35:55.706Z,22.83
2022-11-05T00:38:23.197Z,22.80
2022-11-05T00:40:50.519Z,22.06
2022-11-05T00:43:36.523Z,22.22
2022-11-05T00:46:03.716Z,22.94
2022-11-05T00:48:49.396Z,22.72
2022-11-05T00:54:01.183Z,23.03
2022-11-05T00:56:28.411Z,23.16
2022-11-05T00:58:56.280Z,23.28
2022-11-05T01:01:24.207Z,23.40
2022-11-05T01:03:52.153Z,23.42
2022-11-05T01:06:20.314Z,22.93
2022-11-05T01:08:48.082Z,23.28
2022-11-05T01:11:33.512Z,23.10
2022-11-05T01:14:03.107Z,23.23
2022-11-05T01:16:31.307Z,23.10
2022-11-05T01:19:00.094Z,23.55
2022-11-05T01:21:28.980Z,23.36
2022-11-05T01:23:57.223Z,23.08
2022-11-05T01:26:26.083Z,23.16
2022-11-05T01:28:55.412Z,23.53
2022-11-05T01:31:25.058Z,23.22
2022-11-05T01:33:54.191Z,22.70
2022-11-05T01:36:22.167Z,22.79
2022-11-05T01:38:51.092Z,22.76
2022-11-05T01:41:20.051Z,22.61
2022-11-05T01:43:53.715Z,22.99
2022-11-05T01:46:28.336Z,22.77
2022-11-05T01:49:02.886Z,22.99
2022-11-05T01:51:31.343Z,23.70
2022-11-05T01:54:02.321Z,23.00
2022-11-05T01:56:36.163Z,23.02
2022-11-05T01:59:08.432Z,23.57
2022-11-05T02:01:37.012Z,23.48
2022-11-05T02:04:08.597Z,23.73
2022-11-05T02:06:39.097Z,23.43
2022-11-05T02:09:09.322Z,23.67
2022-11-05T02:11:37.591Z,23.25
2022-11-05T02:14:08.682Z,23.39
2022-11-05T02:16:42.769Z,23.32
2022-11-05T02:19:26.212Z,23.13
2022-11-05T02:22:03.050Z,23.47
2022-11-05T02:24:43.842Z,23.75
2022-11-05T02:27:21.585Z,23.28
2022-11-05T02:29:55.764Z,23.31
2022-11-05T02:32:56.981Z,23.17
2022-11-05T02:35:31.835Z,23.36
2022-11-05T02:38:12.670Z,23.17
2022-11-05T02:41:06.089Z,22.69
2022-11-05T02:43:37.128Z,22.63
2022-11-05T02:46:27.125Z,22.97
2022-11-05T02:49:00.346Z,23.24
2022-11-05T02:51:46.084Z,23.19
2022-11-05T02:54:20.086Z,22.97
2022-11-05T02:56:50.110Z,23.23
2022-11-05T02:59:20.955Z,23.09
2022-11-05T03:01:49.633Z,22.89
2022-11-05T03:04:19.519Z,22.79
2022-11-05T03:07:03.155Z,23.19
2022-11-05T03:09:40.935Z,22.71
2022-11-05T03:12:27.632Z,22.64
2022-11-05T03:14:57.546Z,22.81
2022-11-05T03:17:34.449Z,22.95
2022-11-05T03:20:23.378Z,22.86
2022-11-05T03:23:09.531Z,23.37
2022-11-05T03:25:41.702Z,23.10
2022-11-05T03:28:11.173Z,22.80
2022-11-05T03:30:41.396Z,22.61
2022-11-05T03:33:12.605Z,23.00
2022-11-05T03:35:44.284Z,22.77
2022-11-05T03:38:14.826Z,23.05
2022-11-05T03:40:44.123Z,22.80
2022-11-05T03:43:13.613Z,22.80
2022-11-05T03:45:44.575Z,22.57
2022-11-05T03:48:14.671Z,22.38
2022-11-05T03:50:50.754Z,22.67
2022-11-05T03:53:26.534Z,21.90
2022-11-05T03:55:59.428Z,22.04
2022-11-05T03:58:27.989Z,21.76
2022-11-05T04:00:56.330Z,22.61
2022-11-05T04:03:24.667Z,22.29
2022-11-05T04:06:14.056Z,22.34
2022-11-05T04:09:00.319Z,22.03
2022-11-05T04:11:47.353Z,21.64
2022-11-05T04:14:15.773Z,22.46
2022-11-05T04:17:02.617Z,22.48
2022-11-05T04:19:49.527Z,22.33
2022-11-05T04:22:36.313Z,22.95
2022-11-05T04:25:06.067Z,22.76
2022-11-05T04:27:34.897Z,22.37
2022-11-05T04:30:21.963Z,22.37
2022-11-05T04:33:03.587Z,22.19
2022-11-05T04:35:52.056Z,22.24
2022-11-05T04:38:21.272Z,22.62
2022-11-05T04:40:49.281Z,22.36
2022-11-05T04:43:19.628Z,22.61
2022-11-05T04:45:48.495Z,22.59
2022-11-05T04:48:17.105Z,22.67
2022-11-05T04:50:45.703Z,22.31
2022-11-05T04:53:13.842Z,22.52
2022-11-05T04:55:42.752Z,22.47
2022-11-05T04:58:10.795Z,22.83
2022-11-05T05:00:39.722Z,22.60
2022-11-05T05:03:08.673Z,22.01
2022-11-05T05:05:37.561Z,22.26
2022-11-05T05:08:05.972Z,22.05
2022-11-05T05:10:34.577Z,22.83
2022-11-05T05:13:02.256Z,22.87
2022-11-05T05:15:30.538Z,22.11
2022-11-05T05:17:58.905Z,21.97
2022-11-05T05:20:45.251Z,22.23
2022-11-05T05:23:13.685Z,22.18
2022-11-05T05:25:42.582Z,22.10
2022-11-05T05:28:11.261Z,22.71
2022-11-05T05:30:39.701Z,22.40
2022-11-05T05:33:07.653Z,22.72
2022-11-05T05:35:35.393Z,22.47
2022-11-05T05:38:03.980Z,22.25
2022-11-05T05:40:31.776Z,22.09
2022-11-05T05:43:00.737Z,22.34
2022-11-05T05:45:28.420Z,23.22
2022-11-05T05:47:57.308Z,23.40
2022-11-05T05:50:26.337Z,22.43
2022-11-05T05:52:55.040Z,22.62
2022-11-05T05:55:23.412Z,22.31
2022-11-05T05:57:52.016Z,22.45
2022-11-05T06:00:20.687Z,22.87
2022-11-05T06:02:49.535Z,23.21
2022-11-05T06:05:17.121Z,22.92
2022-11-05T06:07:44.482Z,23.24
2022-11-05T06:10:11.764Z,22.68
2022-11-05T06:12:39.309Z,22.29
2022-11-05T06:15:06.663Z,22.76
2022-11-05T06:17:34.255Z,22.46
2022-11-05T06:20:05.589Z,22.50
2022-11-05T06:22:34.414Z,22.35
2022-11-05T06:25:02.154Z,22.45
2022-11-05T06:27:30.633Z,22.61
2022-11-05T06:29:59.051Z,22.48
2022-11-05T06:32:27.745Z,22.25
2022-11-05T06:34:55.444Z,22.01
2022-11-05T06:37:24.148Z,22.32
2022-11-05T06:39:52.690Z,22.21
2022-11-05T06:42:20.583Z,22.39
2022-11-05T06:44:49.373Z,22.73
2022-11-05T06:47:17.234Z,22.10
2022-11-05T06:49:45.596Z,22.04
2022-11-05T06:52:14.370Z,22.33
2022-11-05T06:54:42.899Z,22.46
2022-11-05T06:57:12.131Z,22.65
2022-11-05T06:59:39.940Z,22.41
2022-11-05T07:02:09.036Z,22.49
2022-11-05T07:04:37.442Z,22.18
2022-11-05T07:07:05.398Z,22.48
2022-11-05T07:09:34.290Z,22.59
2022-11-05T07:12:02.283Z,22.11
2022-11-05T07:14:31.037Z,22.22
2022-11-05T07:16:59.174Z,22.39
2022-11-05T07:19:27.844Z,22.76
2022-11-05T07:21:56.816Z,22.32
2022-11-05T07:24:24.764Z,22.57
2022-11-05T07:26:53.877Z,22.73
2022-11-05T07:29:21.718Z,22.57
2022-11-05T07:31:51.945Z,23.04
2022-11-05T07:34:20.682Z,22.44
2022-11-05T07:36:48.932Z,22.51
2022-11-05T07:39:17.184Z,21.92
2022-11-05T07:41:45.942Z,22.33
2022-11-05T07:44:15.650Z,22.52
2022-11-05T07:46:43.766Z,22.44
2022-11-05T07:49:11.319Z,22.18
2022-11-05T07:51:39.807Z,22.78
2022-11-05T07:54:07.864Z,22.52
2022-11-05T07:56:36.380Z,22.56
2022-11-05T07:59:07.137Z,22.29
2022-11-05T08:01:36.203Z,22.43
2022-11-05T08:04:04.753Z,22.64
2022-11-05T08:06:32.954Z,22.46
2022-11-05T08:09:01.732Z,22.65
2022-11-05T08:11:30.378Z,22.29
2022-11-05T08:14:01.713Z,22.25
2022-11-05T08:16:29.591Z,22.88
2022-11-05T08:18:58.357Z,22.25
2022-11-05T08:21:26.426Z,22.29
2022-11-05T08:23:54.000Z,21.95
2022-11-05T08:26:22.140Z,21.73
2022-11-05T08:28:50.636Z,21.93
2022-11-05T08:31:18.412Z,21.45
2022-11-05T08:33:46.320Z,22.17
2022-11-05T08:36:14.445Z,22.02
2022-11-05T08:38:42.926Z,22.48
2022-11-05T08:41:11.072Z,22.46
2022-11-05T08:43:39.850Z,22.40
2022-11-05T08:46:08.667Z,22.67
2022-11-05T08:48:37.604Z,22.23
2022-11-05T08:51:06.360Z,22.42
2022-11-05T08:53:34.174Z,22.49
2022-11-05T08:56:02.117Z,22.75
2022-11-05T08:58:30.272Z,22.65
2022-11-05T09:01:04.456Z,22.79
2022-11-05T09:03:34.732Z,22.71
2022-11-05T09:06:03.081Z,22.43
2022-11-05T09:08:31.284Z,22.46
2022-11-05T09:11:00.193Z,22.75
2022-11-05T09:13:29.067Z,22.41
2022-11-05T09:15:58.523Z,22.30
2022-11-05T09:18:27.449Z,21.83
2022-11-05T09:20:55.976Z,22.30
2022-11-05T09:23:24.126Z,21.90
2022-11-05T09:25:51.930Z,22.05
2022-11-05T09:28:21.149Z,22.12
2022-11-05T09:30:53.431Z,22.48
2022-11-05T09:33:23.048Z,22.76
2022-11-05T09:35:52.088Z,22.68
2022-11-05T09:38:20.895Z,22.57
2022-11-05T09:40:54.954Z,22.47
2022-11-05T09:43:30.357Z,22.42
2022-11-05T09:46:03.392Z,22.29
2022-11-05T09:48:32.425Z,22.32
2022-11-05T09:51:01.518Z,22.24
2022-11-05T09:53:29.666Z,22.40
2022-11-05T09:55:59.614Z,22.34
2022-11-05T09:58:39.950Z,22.36
2022-11-05T10:01:13.193Z,22.62
2022-11-05T10:03:46.916Z,22.91
2022-11-05T10:06:20.818Z,23.29
2022-11-05T10:09:24.947Z,22.94
2022-11-05T10:11:58.911Z,22.82
2022-11-05T10:14:29.071Z,23.02
2022-11-05T10:17:00.646Z,22.89
2022-11-05T10:19:39.243Z,22.80
2022-11-05T10:22:16.932Z,22.88
2022-11-05T10:24:47.462Z,23.22
2022-11-05T10:27:29.051Z,23.39
2022-11-05T10:29:57.704Z,22.97
2022-11-05T10:32:30.096Z,23.16
2022-11-05T10:35:00.357Z,23.09
2022-11-05T10:37:30.017Z,23.00
2022-11-05T10:39:58.498Z,22.67
2022-11-05T10:42:36.962Z,22.54
2022-11-05T10:45:24.325Z,22.63
2022-11-05T10:47:58.726Z,22.89
2022-11-05T10:50:28.897Z,23.06
2022-11-05T10:53:01.395Z,23.02
2022-11-05T10:55:34.996Z,23.04
2022-11-05T10:58:10.581Z,23.26
2022-11-05T11:00:38.532Z,22.94
2022-11-05T11:03:27.164Z,22.82
2022-11-05T11:06:01.069Z,23.05
2022-11-05T11:08:29.366Z,23.11
2022-11-05T11:11:03.662Z,23.39
2022-11-05T11:14:11.321Z,23.06
2022-11-05T11:16:40.782Z,22.89
2022-11-05T11:19:29.314Z,22.93
2022-11-05T11:22:03.775Z,23.06
2022-11-05T11:24:38.677Z,22.94
2022-11-05T11:27:09.908Z,23.22
2022-11-05T11:29:44.009Z,23.11
2022-11-05T11:32:18.124Z,22.94
2022-11-05T11:34:47.329Z,23.38
2022-11-05T11:37:19.572Z,23.26
2022-11-05T11:40:11.397Z,23.21
2022-11-05T11:42:41.142Z,23.23
2022-11-05T11:45:18.219Z,23.64
2022-11-05T11:47:48.542Z,23.41
2022-11-05T11:50:43.217Z,23.32
2022-11-05T11:53:37.720Z,22.89
2022-11-05T11:56:06.603Z,23.38
2022-11-05T11:58:45.945Z,23.36
2022-11-05T12:01:17.066Z,23.16
2022-11-05T12:03:45.371Z,22.75
2022-11-05T12:06:32.169Z,22.81
2022-11-05T12:09:10.931Z,23.01
2022-11-05T12:11:44.727Z,22.92
2022-11-05T12:14:28.960Z,23.07
2022-11-05T12:17:17.945Z,23.07
2022-11-05T12:20:04.846Z,23.33
2022-11-05T12:22:33.681Z,23.24
2022-11-05T12:25:02.494Z,23.36
2022-11-05T12:27:30.104Z,23.47
2022-11-05T12:30:09.389Z,23.14
2022-11-05T12:32:37.477Z,23.27
2022-11-05T12:35:11.977Z,23.63
2022-11-05T12:37:43.152Z,23.61
2022-11-05T12:40:34.480Z,23.45
2022-11-05T12:43:12.212Z,23.25
2022-11-05T12:45:58.957Z,23.46
2022-11-05T12:48:35.840Z,23.06
2022-11-05T12:51:11.418Z,23.50
2022-11-05T12:53:39.330Z,23.19
2022-11-05T12:56:13.916Z,23.09
2022-11-05T12:58:47.112Z,23.41
2022-11-05T13:01:41.412Z,23.14
2022-11-05T13:04:26.695Z,23.22
2022-11-05T13:06:56.832Z,23.26
2022-11-05T13:09:25.283Z,23.24
2022-11-05T13:12:03.814Z,23.26
2022-11-05T13:14:37.186Z,23.35
2022-11-05T13:17:16.576Z,23.05
2022-11-05T13:19:49.433Z,23.26
2022-11-05T13:22:35.118Z,23.38
2022-11-05T13:25:26.834Z,23.44
2022-11-05T13:27:54.832Z,23.56
2022-11-05T13:30:23.828Z,23.54
2022-11-05T13:33:01.988Z,23.61
2022-11-05T13:35:33.563Z,23.18
2022-11-05T13:38:24.596Z,23.22
2022-11-05T13:40:52.789Z,23.44
2022-11-05T13:43:30.473Z,23.10
2022-11-05T13:46:02.959Z,23.52
2022-11-05T13:48:39.976Z,23.21
2022-11-05T13:51:26.877Z,23.79
2022-11-05T13:54:16.740Z,23.52
2022-11-05T13:56:47.825Z,23.54
2022-11-05T13:59:38.574Z,23.84
2022-11-05T14:02:14.107Z,23.50
2022-11-05T14:04:46.165Z,23.35
2022-11-05T14:07:20.830Z,23.63
2022-11-05T14:10:00.026Z,23.67
2022-11-05T14:12:28.201Z,23.56
2022-11-05T14:15:02.019Z,23.48
2022-11-05T14:17:52.739Z,23.16
2022-11-05T14:20:44.361Z,23.44
2022-11-05T14:23:18.988Z,23.61
2022-11-05T14:25:52.793Z,23.51
2022-11-05T14:28:36.492Z,23.65
2022-11-05T14:31:14.227Z,23.28
2022-11-05T14:33:55.130Z,23.72
2022-11-05T14:36:23.166Z,23.69
2022-11-05T14:38:52.336Z,24.06
2022-11-05T14:41:21.624Z,23.89
2022-11-05T14:43:55.875Z,23.89
2022-11-05T14:46:23.542Z,23.40
2022-11-05T14:49:08.118Z,23.44
2022-11-05T14:51:40.884Z,23.36
2022-11-05T14:54:19.872Z,23.02
2022-11-05T14:56:56.524Z,23.53
2022-11-05T14:59:24.059Z,23.92
2022-11-05T15:01:55.663Z,24.14
2022-11-05T15:04:27.568Z,23.40
2022-11-05T15:07:04.923Z,23.89
2022-11-05T15:09:35.864Z,23.28
2022-11-05T15:12:15.009Z,23.85
2022-11-05T15:14:59.054Z,23.61
2022-11-05T15:17:30.362Z,23.99
2022-11-05T15:20:15.647Z,23.91
2022-11-05T15:22:49.279Z,23.76
2022-11-05T15:25:20.311Z,23.57
2022-11-05T15:27:56.571Z,23.73
2022-11-05T15:30:25.471Z,24.02
2022-11-05T15:32:54.164Z,23.86
2022-11-05T15:35:21.942Z,23.57
2022-11-05T15:37:54.809Z,23.69
2022-11-05T15:40:33.589Z,23.41
2022-11-05T15:43:09.392Z,23.44
2022-11-05T15:45:37.685Z,24.04
2022-11-05T15:48:13.888Z,24.16
2022-11-05T15:50:42.531Z,24.03
2022-11-05T15:56:22.149Z,23.69
2022-11-05T15:58:52.079Z,23.96
2022-11-05T16:01:22.165Z,23.81
2022-11-05T16:03:51.704Z,23.85
2022-11-05T16:06:20.719Z,23.79
2022-11-05T16:08:49.875Z,23.40
2022-11-05T16:11:22.792Z,23.84
2022-11-05T16:13:52.317Z,23.68
2022-11-05T16:16:22.083Z,23.60
2022-11-05T16:18:50.228Z,23.22
2022-11-05T16:21:20.438Z,23.52
2022-11-05T16:23:49.115Z,23.89
2022-11-05T16:29:34.549Z,23.73
2022-11-05T16:32:04.707Z,23.60
2022-11-05T16:34:36.514Z,23.78
2022-11-05T16:37:06.771Z,23.98
2022-11-05T16:39:34.513Z,23.72
2022-11-05T16:42:02.444Z,23.97
2022-11-05T16:44:30.561Z,23.88
2022-11-05T16:46:58.823Z,23.93
2022-11-05T16:49:26.724Z,23.90
2022-11-05T16:51:54.672Z,23.78
2022-11-05T16:54:23.457Z,23.94
2022-11-05T16:56:51.843Z,23.53
2022-11-05T16:59:19.932Z,23.84
2022-11-05T17:01:53.077Z,23.99
2022-11-05T17:04:24.290Z,23.86
2022-11-05T17:06:52.421Z,23.97
2022-11-05T17:09:20.324Z,24.06
2022-11-05T17:11:49.353Z,23.87
2022-11-05T17:14:17.413Z,24.15
2022-11-05T17:16:45.412Z,23.64
2022-11-05T17:19:16.087Z,23.74
2022-11-05T17:21:44.888Z,23.88
2022-11-05T17:24:13.422Z,23.94
2022-11-05T17:26:41.777Z,23.75
2022-11-05T17:29:10.385Z,23.63
2022-11-05T17:31:39.964Z,23.94
2022-11-05T17:34:09.251Z,23.85
2022-11-05T17:36:37.586Z,24.05
2022-11-05T17:39:06.346Z,23.79
2022-11-05T17:41:35.304Z,23.90
2022-11-05T17:44:03.303Z,23.81
2022-11-05T17:46:32.173Z,24.15
2022-11-05T17:48:59.889Z,24.17
2022-11-05T17:51:27.888Z,23.56
2022-11-05T17:53:55.963Z,23.92
2022-11-05T17:56:33.493Z,23.85
2022-11-05T17:59:04.565Z,23.50
2022-11-05T18:01:36.083Z,23.73
2022-11-05T18:04:08.924Z,23.90
2022-11-05T18:06:38.229Z,23.91
2022-11-05T18:09:07.530Z,23.75
2022-11-05T18:11:36.446Z,23.66
2022-11-05T18:14:04.530Z,23.91
2022-11-05T18:16:33.144Z,24.11
2022-11-05T18:19:00.958Z,24.28
2022-11-05T18:21:29.300Z,23.97
2022-11-05T18:23:57.512Z,23.62
2022-11-05T18:26:26.357Z,23.64
2022-11-05T18:28:55.398Z,23.54
2022-11-05T18:31:23.112Z,23.75
2022-11-05T18:33:51.564Z,24.23
2022-11-05T18:36:20.664Z,24.64
2022-11-05T18:38:48.759Z,24.68
2022-11-05T18:41:17.527Z,24.80
2022-11-05T18:43:46.451Z,25.10
2022-11-05T18:46:36.107Z,25.02
2022-11-05T18:49:04.653Z,24.89
2022-11-05T18:51:33.357Z,25.05
2022-11-05T18:54:01.071Z,25.07
2022-11-05T18:56:29.928Z,25.21
2022-11-05T18:59:21.867Z,25.04
2022-11-05T19:01:46.988Z,25.02
2022-11-05T19:04:14.676Z,25.03
2022-11-05T19:06:41.902Z,24.70
2022-11-05T19:09:10.138Z,24.62
2022-11-05T19:11:38.300Z,24.66
2022-11-05T19:14:06.053Z,24.57
2022-11-05T19:16:34.933Z,24.58
2022-11-05T19:19:05.059Z,24.36
2022-11-05T19:21:34.370Z,24.66
2022-11-05T19:24:03.189Z,24.66
2022-11-05T19:26:32.235Z,24.57
2022-11-05T19:29:02.960Z,24.59
2022-11-05T19:31:31.898Z,24.71
2022-11-05T19:33:59.916Z,24.57
2022-11-05T19:36:28.459Z,24.80
2022-11-05T19:38:58.697Z,24.54
2022-11-05T19:41:27.663Z,24.61
2022-11-05T19:43:55.941Z,24.64
2022-11-05T19:46:24.998Z,24.73
2022-11-05T19:48:53.740Z,24.76
2022-11-05T19:51:23.353Z,24.62
2022-11-05T19:53:55.419Z,24.45
2022-11-05T19:56:34.077Z,24.54
2022-11-05T19:59:04.403Z,24.67
2022-11-05T20:01:33.681Z,24.41
2022-11-05T20:04:02.887Z,24.83
2022-11-05T20:06:33.463Z,24.67
2022-11-05T20:09:20.959Z,24.77
2022-11-05T20:11:54.781Z,24.68
2022-11-05T20:14:23.944Z,24.38
2022-11-05T20:16:53.100Z,24.42
2022-11-05T20:19:21.896Z,24.46
2022-11-05T20:21:49.700Z,24.41
2022-11-05T20:24:25.530Z,24.64
2022-11-05T20:26:55.086Z,24.61
2022-11-05T20:29:26.029Z,24.62
2022-11-05T20:31:58.034Z,24.50
2022-11-05T20:34:26.257Z,24.63
2022-11-05T20:36:54.530Z,24.59
2022-11-05T20:39:22.952Z,24.71
2022-11-05T20:41:53.416Z,24.74
2022-11-05T20:44:22.391Z,24.52
2022-11-05T20:46:50.593Z,24.53
2022-11-05T20:49:24.010Z,24.56
2022-11-05T20:51:53.676Z,24.64
2022-11-05T20:54:21.856Z,24.56
2022-11-05T20:56:50.529Z,24.65
2022-11-05T20:59:19.494Z,24.59
2022-11-05T21:01:47.554Z,24.55
2022-11-05T21:04:15.913Z,24.67
2022-11-05T21:06:44.483Z,24.66
2022-11-05T21:09:13.600Z,24.65
2022-11-05T21:12:00.520Z,24.71
2022-11-05T21:14:29.381Z,24.60
2022-11-05T21:16:57.978Z,24.72
2022-11-05T21:19:26.969Z,24.57
2022-11-05T21:21:55.284Z,24.55
2022-11-05T21:24:24.341Z,24.63
2022-11-05T21:26:53.198Z,24.66
2022-11-05T21:29:21.637Z,24.53
2022-11-05T21:31:50.247Z,24.61
2022-11-05T21:34:19.709Z,24.63
2022-11-05T21:36:48.153Z,24.49
2022-11-05T21:39:16.582Z,24.50
2022-11-05T21:41:47.516Z,24.60
2022-11-05T21:44:15.634Z,24.72
2022-11-05T21:46:43.499Z,24.61
2022-11-05T21:49:12.291Z,24.40
2022-11-05T21:51:58.994Z,24.53
2022-11-05T21:54:46.036Z,24.41
2022-11-05T21:57:33.901Z,24.56
2022-11-05T22:00:04.643Z,24.44
2022-11-05T22:02:33.057Z,24.37
2022-11-05T22:05:02.619Z,24.46
2022-11-05T22:07:32.688Z,24.38
2022-11-05T22:10:01.516Z,24.50
2022-11-05T22:12:30.166Z,24.51
2022-11-05T22:14:58.245Z,24.43
2022-11-05T22:17:27.647Z,24.20
2022-11-05T22:19:56.319Z,24.23
2022-11-05T22:22:25.618Z,24.31
2022-11-05T22:24:54.527Z,24.31
2022-11-05T22:27:22.926Z,24.47
2022-11-05T22:29:51.406Z,24.34
2022-11-05T22:32:19.581Z,24.58
2022-11-05T22:34:50.220Z,24.37
2022-11-05T22:37:19.097Z,24.44
2022-11-05T22:39:47.683Z,24.25
2022-11-05T22:42:16.028Z,24.44
2022-11-05T22:44:44.788Z,24.46
2022-11-05T22:47:15.313Z,24.48
2022-11-05T22:49:43.144Z,24.53
2022-11-05T22:52:11.085Z,24.34
2022-11-05T22:54:39.708Z,24.32
2022-11-05T22:57:08.498Z,24.36
2022-11-05T22:59:36.275Z,24.54
2022-11-05T23:02:09.547Z,24.52
2022-11-05T23:04:38.150Z,24.48
2022-11-05T23:07:27.988Z,24.43
2022-11-05T23:10:14.591Z,24.54
2022-11-05T23:12:43.832Z,24.47
2022-11-05T23:15:32.506Z,24.44
2022-11-05T23:18:19.745Z,24.61
2022-11-05T23:21:06.913Z,24.41
2022-11-05T23:23:53.245Z,24.41
2022-11-05T23:26:38.970Z,24.60
2022-11-05T23:29:06.287Z,24.53
2022-11-05T23:31:52.164Z,24.64
2022-11-05T23:34:19.511Z,24.51
2022-11-05T23:37:05.392Z,24.52
2022-11-05T23:39:34.009Z,24.40
2022-11-05T23:42:23.120Z,24.56
2022-11-05T23:45:14.089Z,24.46
2022-11-05T23:48:00.437Z,24.56
2022-11-05T23:50:29.346Z,24.66
2022-11-05T23:52:57.867Z,24.68
2022-11-05T23:55:26.067Z,24.63
2022-11-05T23:57:54.533Z,24.60
